Belleville, West Virginia
Current Conditions -  °F | °C
As of 9:53 AM on Saturday 27 Dec 2014 (Local Time) from KPKB Reporting Station
Clear Clear  
Wind Chill: 43°   Ceiling: Unl
Heat Index: 47°   Visibility: 10mi
Dew Point: 31°   Wind: 8mph
Humidity: 54%   Direction: 180°S
Pressure: 30.3"   Gusts: NA
Location:  39.12°N, 81.74°W
Report Text: KPKB 271453Z 18007KT 10SM CLR 08/M01 A3030 RMK AO2 SLP262 T00831006 51012
Loading
Personal Weather Stations






























Interactive Weather Map New forecast layout! Learn more

10-Day Weather Forecast

Advertisements
Track Severe Weather on mobile